Aviation Digital Data Service (ADDS)

Output produced by METARs form (0031 UTC 17 July 2019)
found at http://www.aviationweather.gov/metar/data/
 
KOAJ 162330Z 1700/1724 17003KT P6SM BKN250 
     TEMPO 1707/1711 3SM BR SCT250 
     FM171500 21008KT P6SM SCT250 AMD LTD TO CLD VIS AND WIND
       
KOAK 162340Z 1700/1806 27014G21KT P6SM FEW010 
     FM170400 27010KT P6SM FEW008 
     FM170600 VRB04KT P6SM FEW008 
     FM171200 03005KT P6SM FEW008 
     FM171900 34006KT P6SM SKC 
     FM172100 29011KT P6SM SKC 
     FM180300 28008KT P6SM SKC
       
TAF KOFF 161800Z 1618/1724 VRB06KT 9999 FEW080 QNH2980INS WND 17009KT AFT 1700 
     BECMG 1713/1714 19015G25KT 9999 SCT100 QNH2966INS 
     TEMPO 1719/1721 VRB15G25KT -TSRA BKN050CB 
     BECMG 1723/1724 18012KT 9999 FEW100 FEW250 QNH2968INS TX38/1718Z TN24/1711Z
       
KOFK 162320Z 1700/1724 15006KT P6SM FEW250 
     FM171500 16013G22KT P6SM SCT250
       
KOGB 162321Z 1700/1724 VRB03KT P6SM SCT250 
     FM171500 26007KT P6SM SCT050
       
KOGD 162320Z 1700/1724 27008KT P6SM SCT120 
     FM170300 33010KT P6SM SCT120 
     FM171200 17006KT P6SM FEW120 
     FM171800 27008KT P6SM SCT120
       
KOKC 162320Z 1700/1724 17010KT P6SM SCT080 BKN250 
     FM171400 20014G23KT P6SM SCT060 SCT250
       
KOLF 162326Z 1700/1724 VRB06KT P6SM VCSH SCT090 
     TEMPO 1700/1701 30030G45KT 1SM +TSRA BR SCT014CB BKN030 
     FM170100 VRB05KT P6SM OVC100 
     FM170800 VRB03KT P6SM SCT100
       
KOLM 162321Z 1700/1724 VRB04KT P6SM BKN080 
     FM170900 21006KT P6SM BKN040 
     FM171200 21006KT P6SM OVC030 
     FM172100 21012KT P6SM -SHRA BKN025 BKN050
       
KOLS 162322Z 1700/1724 11008KT P6SM VCSH SCT100 BKN200 
     FM170300 17005KT P6SM BKN120 OVC200 
     FM171800 21007KT P6SM OVC250 
     PROB30 1720/1722 5SM -TSRA BKN050CB 
     FM172300 25008KT P6SM VCSH OVC100
       
KOMA 162320Z 1700/1724 15006KT P6SM FEW060 
     FM171600 16014G22KT P6SM FEW250
       
KONP 162320Z 1700/1724 32010KT P6SM OVC035 
     FM170400 24003KT 5SM BR OVC012 
     FM170800 00000KT 2SM -DZ OVC004 
     FM171100 18003KT 3SM -DZ OVC003
       
KONT 162320Z 1700/1806 26013G20KT P6SM SKC 
     FM170300 25007KT P6SM SKC 
     FM172000 25010G18KT P6SM SKC 
     FM180400 26007KT P6SM FEW010
       
KOPF 162331Z 1700/1724 12005KT P6SM FEW025 SCT250 
     FM170200 VRB03KT P6SM FEW025 SCT250 
     FM171500 12010KT P6SM SCT030 SCT060
       
KORD 162336Z 1700/1806 15004KT P6SM BKN080 
     FM170700 00000KT 6SM BR SCT100 SCT250 
     FM171300 VRB03KT P6SM SCT040 BKN100 
     FM172000 06008KT P6SM SCT050
       
KORF 162332Z 1700/1724 22008KT P6SM BKN150 
     FM170600 22008KT P6SM SCT250 
     FM171800 21010G18KT P6SM SCT250
       
KORH 162322Z 1700/1724 19006KT P6SM SCT250 
     FM171100 24008KT P6SM BKN080 
     FM171200 25010KT P6SM BKN080 
     FM171600 25012KT P6SM VCSH BKN060 
     FM171800 24012KT 6SM -RA BR VCTS OVC040CB
       
KOSH 162331Z 1700/1724 29005KT P6SM VCSH SCT040 BKN250 
     FM170200 VRB03KT P6SM VCTS SCT040CB BKN120 
     FM171000 36003KT P6SM SCT040 BKN100 
     TEMPO 1710/1713 6SM BR 
     FM171500 06004KT P6SM SCT040 BKN250
       
KOTH 162320Z 1700/1724 34012G20KT P6SM SCT020 BKN035 
     FM170300 35008KT P6SM SCT008 BKN015 
     FM170500 VRB03KT P6SM OVC008 
     FM171700 VRB03KT P6SM SCT012 OVC025 
     FM172000 24010KT P6SM OVC030
       
KOTM 162336Z 1700/1724 VRB03KT P6SM SCT200 
     FM171700 18008KT P6SM SCT150
       
KOUN 162320Z 1700/1724 15008KT P6SM SCT080 BKN250 
     FM171400 20013G21KT P6SM SCT060 SCT250
       
KOWB 162320Z 1700/1724 19011KT P6SM VCSH BKN030 BKN110 
     TEMPO 1701/1704 4SM -TSRA BR OVC019CB 
     FM170500 21008KT P6SM BKN023 
     FM171500 27007KT P6SM BKN100 
     FM171700 27007KT P6SM SCT080
       
KOXR 162329Z 1700/1724 28010KT P6SM SKC 
     FM170400 VRB03KT P6SM SKC 
     FM171000 VRB03KT 5SM BR BKN006 
     FM171200 VRB03KT 4SM BR OVC004 
     FM171700 25005KT 6SM BR OVC006 
     FM172000 26010KT 6SM HZ SCT010
       
TAF KOZR 170000Z 1700/1806 VRB06KT 9999 FEW210 QNH3007INS 
     BECMG 1708/1709 VRB03KT 6000 BR FEW055 QNH3010INS 
     BECMG 1713/1714 23006KT 9999 NSW SKC QNH3004INS TX35/1721Z TN22/1710Z